createdAt,value
2023-05-14T00:00:02.655Z,0
2023-05-14T00:05:02.663Z,0
2023-05-14T00:10:02.605Z,0
2023-05-14T00:15:02.648Z,0
2023-05-14T00:20:02.690Z,0
2023-05-14T00:25:02.641Z,0
2023-05-14T00:30:02.734Z,0
2023-05-14T00:35:02.768Z,0
2023-05-14T00:40:02.780Z,0
2023-05-14T00:45:02.850Z,0
2023-05-14T00:50:03.250Z,0
2023-05-14T00:55:02.652Z,0
2023-05-14T01:00:02.658Z,0
2023-05-14T01:05:02.717Z,0
2023-05-14T01:10:06.195Z,0
2023-05-14T01:15:06.250Z,0
2023-05-14T01:20:06.349Z,0
2023-05-14T01:25:06.318Z,0
2023-05-14T01:30:06.359Z,0
2023-05-14T01:35:06.145Z,0
2023-05-14T01:40:06.227Z,0
2023-05-14T01:45:06.283Z,0
2023-05-14T01:50:06.178Z,0
2023-05-14T01:55:06.182Z,0
2023-05-14T02:00:06.228Z,0
2023-05-14T02:05:07.100Z,0
2023-05-14T02:10:06.265Z,0
2023-05-14T02:15:06.174Z,0
2023-05-14T02:20:06.220Z,0
2023-05-14T02:25:06.210Z,0
2023-05-14T02:30:06.196Z,0
2023-05-14T02:35:06.469Z,0
2023-05-14T02:40:06.319Z,0
2023-05-14T02:45:06.350Z,0
2023-05-14T02:50:06.416Z,0
2023-05-14T02:55:06.436Z,0
2023-05-14T03:00:06.193Z,0
2023-05-14T03:05:06.223Z,0
2023-05-14T03:10:06.267Z,0
2023-05-14T03:15:06.227Z,0
2023-05-14T03:20:06.374Z,0.3365714285714286
2023-05-14T03:25:06.255Z,0.4556613756613757
2023-05-14T03:30:06.245Z,0.542063492063492
2023-05-14T03:35:06.279Z,0.9102010582010581
2023-05-14T03:40:06.317Z,1.234021164021164
2023-05-14T03:45:06.272Z,1.6034920634920635
2023-05-14T03:50:06.287Z,2.093968253968254
2023-05-14T03:55:06.258Z,2.748867724867725
2023-05-14T04:00:06.326Z,3.381343915343916
2023-05-14T04:05:06.410Z,3.744804232804233
2023-05-14T04:10:06.387Z,3.6441269841269843
2023-05-14T04:15:06.497Z,3.3142222222222224
2023-05-14T04:20:06.449Z,2.966920634920635
2023-05-14T04:25:06.496Z,3.0918624338624334
2023-05-14T04:30:06.298Z,3.3960740740740745
2023-05-14T04:35:06.338Z,3.4341798941798944
2023-05-14T04:40:06.286Z,3.5333650793650797
2023-05-14T04:45:06.346Z,3.7830158730158727
2023-05-14T04:50:06.420Z,3.773280423280423
2023-05-14T04:55:06.313Z,3.8020529100529097
2023-05-14T05:00:06.348Z,3.459746031746032
2023-05-14T05:05:06.477Z,3.258084656084656
2023-05-14T05:10:06.302Z,3.3888465608465603
2023-05-14T05:15:06.420Z,4.091396825396825
2023-05-14T05:20:06.377Z,5.69210582010582
2023-05-14T05:25:06.381Z,6.890846560846561
2023-05-14T05:30:06.439Z,7.074222222222222
2023-05-14T05:35:06.532Z,7.519269841269842
2023-05-14T05:40:06.458Z,8.76095238095238
2023-05-14T05:45:06.544Z,9.572264550264551
2023-05-14T05:50:06.372Z,10.453904761904761
2023-05-14T05:55:06.446Z,11.551026455026456
2023-05-14T06:00:06.385Z,12.787026455026455
2023-05-14T06:05:06.389Z,14.12794708994709
2023-05-14T06:10:06.438Z,15.55630687830688
2023-05-14T06:15:06.420Z,17.11916402116402
2023-05-14T06:20:06.440Z,18.618698412698414
2023-05-14T06:25:06.392Z,20.198761904761906
2023-05-14T06:30:06.411Z,22.001502645502644
2023-05-14T06:35:06.471Z,23.554253968253967
2023-05-14T06:40:06.473Z,25.661936507936506
2023-05-14T06:45:06.417Z,27.791100529100532
2023-05-14T06:50:06.757Z,29.958486772486776
2023-05-14T06:55:06.389Z,32.829735449735445
2023-05-14T07:00:06.402Z,37.06649735449736
2023-05-14T07:05:06.485Z,33.0489417989418
2023-05-14T07:10:06.540Z,29.468105820105816
2023-05-14T07:15:06.575Z,26.809428571428572
2023-05-14T07:20:06.663Z,21.897111111111112
2023-05-14T07:25:06.594Z,20.946306878306878
2023-05-14T07:30:06.655Z,24.022645502645503
2023-05-14T07:35:06.660Z,29.323396825396824
2023-05-14T07:40:06.723Z,26.29468783068783
2023-05-14T07:45:06.509Z,38.47769312169312
2023-05-14T07:50:06.514Z,30.304232804232807
2023-05-14T07:55:06.867Z,33.17865608465609
2023-05-14T08:00:06.533Z,26.859407407407403
2023-05-14T08:05:06.445Z,30.939068783068784
2023-05-14T08:10:06.507Z,32.56899470899471
2023-05-14T08:15:06.499Z,38.99821164021164
2023-05-14T08:20:06.541Z,56.44603174603176
2023-05-14T08:25:06.618Z,54.203523809523816
2023-05-14T08:30:06.530Z,49.51444444444444
2023-05-14T08:35:06.509Z,55.12632804232804
2023-05-14T08:40:06.617Z,45.17069841269842
2023-05-14T08:45:06.673Z,56.80368253968254
2023-05-14T08:50:06.665Z,52.938042328042336
2023-05-14T08:55:06.732Z,49.01092063492064
2023-05-14T09:00:06.710Z,35.67258201058201
2023-05-14T09:05:06.750Z,33.264391534391535
2023-05-14T09:10:06.593Z,36.15108994708995
2023-05-14T09:15:06.545Z,47.74014814814815
2023-05-14T09:20:06.543Z,47.07177777777778
2023-05-14T09:25:06.670Z,55.69038095238095
2023-05-14T09:30:06.585Z,76.47795767195767
2023-05-14T09:35:06.707Z,72.42094179894181
2023-05-14T09:40:06.578Z,74.24426455026456
2023-05-14T09:45:06.583Z,78.16746031746031
2023-05-14T09:50:06.595Z,67.43198941798943
2023-05-14T09:55:06.709Z,69.04668783068783
2023-05-14T10:00:06.689Z,79.58321693121694
2023-05-14T10:05:06.596Z,77.61431746031747
2023-05-14T10:10:06.588Z,62.9221164021164
2023-05-14T10:15:06.615Z,76.52549206349207
2023-05-14T10:20:06.646Z,81.73728042328042
2023-05-14T10:25:06.600Z,82.32638095238094
2023-05-14T10:30:06.640Z,81.32225396825397
2023-05-14T10:35:06.714Z,81.97067724867725
2023-05-14T10:40:06.675Z,78.00262433862434
2023-05-14T10:45:06.709Z,82.07720634920635
2023-05-14T10:50:06.769Z,75.62766137566138
2023-05-14T10:55:06.743Z,68.85421164021164
2023-05-14T11:00:06.688Z,80.62231746031746
2023-05-14T11:05:06.643Z,78.53495238095238
2023-05-14T11:10:06.677Z,83.27744973544974
2023-05-14T11:15:06.711Z,86.54281481481482
2023-05-14T11:20:06.699Z,81.86450793650793
2023-05-14T11:25:06.631Z,78.89459259259259
2023-05-14T11:30:06.917Z,69.50328042328042
2023-05-14T11:35:06.835Z,66.78837037037037
2023-05-14T11:40:06.651Z,73.6444761904762
2023-05-14T11:45:06.700Z,81.31186243386243
2023-05-14T11:50:08.657Z,82.04154497354497
2023-05-14T11:55:06.737Z,80.54003174603174
2023-05-14T12:00:06.771Z,79.80680423280424
2023-05-14T12:17:30.553Z,81.38868783068783
2023-05-14T12:20:06.750Z,80.05291005291005
2023-05-14T12:25:06.716Z,79.74201058201058
2023-05-14T12:30:20.441Z,80.28746031746032
2023-05-14T12:35:06.697Z,79.90856084656085
2023-05-14T12:40:06.742Z,79.27486772486773
2023-05-14T12:45:06.940Z,78.74937566137567
2023-05-14T12:50:06.944Z,74.43210582010582
2023-05-14T12:55:06.762Z,78.95404232804233
2023-05-14T13:00:06.886Z,77.47757671957672
2023-05-14T13:05:06.720Z,76.47569312169313
2023-05-14T13:10:00.845Z,74.63391534391533
2023-05-14T13:15:00.887Z,73.76222222222222
2023-05-14T13:20:00.900Z,73.00595767195767
2023-05-14T13:25:00.992Z,72.79725925925926
2023-05-14T13:30:01.077Z,72.44178835978836
2023-05-14T13:35:00.889Z,71.53827513227513
2023-05-14T13:40:00.912Z,61.06675132275132
2023-05-14T13:45:00.900Z,70.0157671957672
2023-05-14T13:50:00.997Z,68.94991534391535
2023-05-14T13:55:00.977Z,67.84649735449734
2023-05-14T14:00:00.976Z,67.94587301587302
2023-05-14T14:05:01.146Z,63.044232804232806
2023-05-14T14:10:00.881Z,67.01421164021164
2023-05-14T14:15:00.898Z,47.33132275132276
2023-05-14T14:20:00.970Z,47.97017989417989
2023-05-14T14:25:01.191Z,33.94819047619048
2023-05-14T14:30:00.986Z,63.55151322751323
2023-05-14T14:35:01.022Z,59.9666455026455
2023-05-14T14:40:01.098Z,56.46104761904762
2023-05-14T14:45:00.957Z,55.344275132275136
2023-05-14T14:50:01.008Z,54.71886772486773
2023-05-14T14:55:00.978Z,54.549460317460316
2023-05-14T15:00:02.437Z,53.17045502645503
2023-05-14T15:05:00.935Z,51.88038095238095
2023-05-14T15:10:00.990Z,50.572772486772486
2023-05-14T15:15:01.170Z,49.29378835978836
2023-05-14T15:20:00.974Z,47.739343915343916
2023-05-14T15:25:00.993Z,46.587513227513234
2023-05-14T15:30:01.040Z,45.140116402116405
2023-05-14T15:35:01.012Z,43.38341798941799
2023-05-14T15:40:00.985Z,41.603502645502644
2023-05-14T15:45:01.052Z,39.909333333333336
2023-05-14T15:50:01.179Z,37.83759788359789
2023-05-14T15:55:01.342Z,36.322296296296294
2023-05-14T16:00:01.058Z,35.05002116402116
2023-05-14T16:05:01.053Z,33.39640211640212
2023-05-14T16:10:01.028Z,31.890074074074075
2023-05-14T16:15:01.060Z,30.37151322751323
2023-05-14T16:20:01.079Z,28.713809523809523
2023-05-14T16:25:03.221Z,27.04376719576719
2023-05-14T16:30:01.726Z,25.555365079365078
2023-05-14T16:35:01.052Z,23.983957671957672
2023-05-14T16:40:01.056Z,22.47195767195767
2023-05-14T16:45:01.110Z,20.948952380952377
2023-05-14T16:50:01.102Z,19.462666666666667
2023-05-14T16:55:01.021Z,17.957428571428572
2023-05-14T17:00:01.214Z,16.390328042328044
2023-05-14T17:05:01.360Z,15.003449735449736
2023-05-14T17:10:01.227Z,13.70435978835979
2023-05-14T17:15:02.523Z,12.347439153439154
2023-05-14T17:20:01.111Z,11.109132275132277
2023-05-14T17:25:01.142Z,9.97679365079365
2023-05-14T17:30:01.116Z,8.911830687830689
2023-05-14T17:35:01.091Z,7.883650793650794
2023-05-14T17:40:01.526Z,6.886730158730159
2023-05-14T17:45:01.262Z,6.1442116402116405
2023-05-14T17:50:01.102Z,5.541650793650794
2023-05-14T17:55:01.100Z,5.0381693121693125
2023-05-14T18:00:01.076Z,4.649809523809523
2023-05-14T18:05:01.112Z,3.812391534391535
2023-05-14T18:10:01.100Z,3.115058201058201
2023-05-14T18:15:01.202Z,2.4904761904761905
2023-05-14T18:20:01.179Z,1.9986243386243385
2023-05-14T18:25:01.229Z,1.7703174603174605
2023-05-14T18:30:01.294Z,1.6398730158730157
2023-05-14T18:35:01.131Z,1.5532910052910054
2023-05-14T18:40:01.138Z,0.9783280423280423
2023-05-14T18:45:01.193Z,0.5101693121693122
2023-05-14T18:50:01.325Z,0.24985185185185185
2023-05-14T18:55:01.275Z,0.3643068783068783
2023-05-14T19:00:01.261Z,0.23192592592592595
2023-05-14T19:05:01.583Z,0
2023-05-14T19:10:01.211Z,0
2023-05-14T19:15:01.334Z,0
2023-05-14T19:20:01.439Z,0
2023-05-14T19:25:01.170Z,0
2023-05-14T19:30:01.230Z,0
2023-05-14T19:35:01.196Z,0
2023-05-14T19:40:01.217Z,0
2023-05-14T19:45:01.250Z,0
2023-05-14T19:50:01.279Z,0
2023-05-14T19:55:01.195Z,0
2023-05-14T20:00:01.246Z,0
2023-05-14T20:05:01.290Z,0
2023-05-14T20:10:01.358Z,0
2023-05-14T20:15:01.404Z,0
2023-05-14T20:20:01.244Z,0
2023-05-14T20:25:01.249Z,0
2023-05-14T20:30:01.243Z,0
2023-05-14T20:35:01.280Z,0
2023-05-14T20:40:01.495Z,0
2023-05-14T20:45:01.276Z,0
2023-05-14T20:50:01.283Z,0
2023-05-14T20:55:02.246Z,0
2023-05-14T21:00:01.324Z,0
2023-05-14T21:05:01.540Z,0
2023-05-14T21:10:01.480Z,0
2023-05-14T21:15:01.489Z,0
2023-05-14T21:20:01.267Z,0
2023-05-14T21:25:01.302Z,0
2023-05-14T21:30:01.276Z,0
2023-05-14T21:35:01.295Z,0
2023-05-14T21:40:01.319Z,0
2023-05-14T21:45:01.320Z,0
2023-05-14T21:50:01.341Z,0
2023-05-14T21:55:01.425Z,0
2023-05-14T22:00:01.515Z,0
2023-05-14T22:05:01.483Z,0
2023-05-14T22:10:01.559Z,0
2023-05-14T22:15:01.355Z,0
2023-05-14T22:20:01.365Z,0
2023-05-14T22:25:01.426Z,0
2023-05-14T22:30:01.370Z,0
2023-05-14T22:35:01.364Z,0
2023-05-14T22:40:01.406Z,0
2023-05-14T22:45:01.347Z,0
2023-05-14T22:50:01.583Z,0
2023-05-14T22:55:01.476Z,0
2023-05-14T23:00:01.497Z,0
2023-05-14T23:05:01.516Z,0
2023-05-14T23:10:01.603Z,0
2023-05-14T23:15:01.492Z,0
2023-05-14T23:20:01.436Z,0
2023-05-14T23:25:01.445Z,0
2023-05-14T23:30:02.837Z,0
2023-05-14T23:35:01.391Z,0
2023-05-14T23:40:01.423Z,0
2023-05-14T23:45:01.400Z,0
2023-05-14T23:50:01.453Z,0
2023-05-14T23:55:01.440Z,0
